Time;durP1;ratioP1;P1;durP2;ratioP2;P2;SDS_P1;SDS_P2;PMS_P1;PMS_P2;Temp;Humidity;BMP_temperature;BMP_pressure;BME280_temperature;BME280_humidity;BME280_pressure;Samples;Min_cycle;Max_cycle;Signal;HPM_P1;HPM_P2
2023/10/16 00:01:09;;;;;;;2.08;1.33;;;;;;;18.71;56.37;102532.78;5001825;28;20052;-37
2023/10/16 00:03:43;;;;;;;2.83;1.50;;;;;;;18.70;56.56;102519.47;5002888;28;20353;-37
2023/10/16 00:06:11;;;;;;;2.92;1.73;;;;;;;18.70;56.39;102525.72;5001527;28;20121;-37
2023/10/16 00:08:48;;;;;;;3.22;1.70;;;;;;;18.70;56.37;102522.16;5001728;28;20398;-37
2023/10/16 00:11:18;;;;;;;1.80;1.40;;;;;;;18.69;56.09;102523.09;5000963;28;20057;-37
2023/10/16 00:13:52;;;;;;;2.97;1.60;;;;;;;18.68;56.51;102513.31;5006393;28;20066;-37
2023/10/16 00:16:21;;;;;;;;;;;;;;;18.66;56.64;102515.28;5006343;28;20112;-37
2023/10/16 00:18:50;;;;;;;2.17;1.63;;;;;;;18.70;56.06;102517.66;5004065;28;19979;-37
2023/10/16 00:21:17;;;;;;;2.42;1.50;;;;;;;18.67;56.42;102517.84;5001095;28;20100;-37
2023/10/16 00:23:45;;;;;;;2.65;1.50;;;;;;;18.66;56.39;102516.16;5003660;28;20060;-39
2023/10/16 00:26:21;;;;;;;3.03;1.48;;;;;;;18.66;56.58;102518.81;5005943;28;20058;-37
2023/10/16 00:28:52;;;;;;;2.85;1.20;;;;;;;18.63;56.52;102519.06;4999788;28;20050;-37
2023/10/16 00:31:21;;;;;;;2.17;1.27;;;;;;;18.63;56.78;102521.75;5003838;28;20093;-38
2023/10/16 00:33:50;;;;;;;2.65;1.38;;;;;;;18.63;56.38;102526.25;4999468;28;20514;-36
2023/10/16 00:36:17;;;;;;;2.47;1.38;;;;;;;18.61;56.58;102517.44;5005200;28;20052;-37
2023/10/16 00:38:51;;;;;;;2.08;1.58;;;;;;;18.59;56.56;102516.72;5002909;28;20081;-37
2023/10/16 00:41:24;;;;;;;2.17;1.45;;;;;;;18.58;56.39;102515.88;5004784;28;20038;-37
2023/10/16 00:43:50;;;;;;;2.67;1.40;;;;;;;18.58;56.19;102512.34;5006943;28;20054;-37
2023/10/16 00:46:36;;;;;;;4.13;1.70;;;;;;;18.55;56.51;102507.19;5006231;28;20148;-37
2023/10/16 00:49:06;;;;;;;1.88;1.33;;;;;;;18.56;56.32;102508.88;5004883;28;20133;-37
2023/10/16 00:51:36;;;;;;;3.65;1.45;;;;;;;18.55;56.70;102513.41;5001930;28;20141;-37
2023/10/16 00:54:16;;;;;;;2.53;1.75;;;;;;;18.54;56.33;102508.16;5000050;28;20128;-37
2023/10/16 00:56:47;;;;;;;2.78;1.52;;;;;;;18.53;56.05;102503.75;4999910;28;20470;-37
2023/10/16 00:59:17;;;;;;;2.38;1.30;;;;;;;18.52;56.24;102500.22;4998892;28;20056;-37
2023/10/16 01:01:45;;;;;;;2.08;1.17;;;;;;;18.50;56.51;102499.47;5003495;28;20328;-37
2023/10/16 01:04:17;;;;;;;1.60;1.10;;;;;;;18.49;56.60;102504.00;5005711;28;20046;-37
2023/10/16 01:06:44;;;;;;;2.05;1.27;;;;;;;18.48;56.45;102504.94;5000542;28;20057;-37
2023/10/16 01:09:24;;;;;;;2.53;1.30;;;;;;;18.48;56.19;102498.72;5002408;28;20129;-37
2023/10/16 01:11:52;;;;;;;2.85;1.88;;;;;;;18.46;56.67;102490.81;4998671;28;20056;-37
2023/10/16 01:14:19;;;;;;;1.67;1.08;;;;;;;18.46;56.46;102496.16;4999514;28;20054;-38
2023/10/16 01:16:46;;;;;;;3.15;1.35;;;;;;;18.46;56.42;102495.31;5002306;28;20085;-37
2023/10/16 01:19:19;;;;;;;4.00;1.65;;;;;;;18.45;56.49;102496.28;5004910;28;20057;-37
2023/10/16 01:21:47;;;;;;;1.80;1.13;;;;;;;18.45;56.16;102490.91;5004696;28;20141;-38
2023/10/16 01:24:14;;;;;;;1.95;1.17;;;;;;;18.43;56.51;102491.03;5001093;28;20101;-38
2023/10/16 01:26:41;;;;;;;1.98;1.10;;;;;;;18.43;56.33;102492.84;5001103;28;20053;-38
2023/10/16 01:29:13;;;;;;;2.78;1.30;;;;;;;18.42;56.66;102492.00;5000916;28;20093;-38
2023/10/16 01:31:40;;;;;;;1.75;1.20;;;;;;;18.42;56.51;102488.47;5003036;28;20081;-38
2023/10/16 01:34:13;;;;;;;1.92;1.42;;;;;;;18.42;56.37;102491.16;5004468;28;20108;-38
2023/10/16 01:36:45;;;;;;;1.67;1.10;;;;;;;18.42;56.51;102491.16;5005614;28;20058;-37
2023/10/16 01:42:02;;;;;;;1.48;1.02;;;;;;;18.40;56.66;102491.25;5009750;28;20042;-37
2023/10/16 01:44:29;;;;;;;2.47;1.48;;;;;;;18.41;56.41;102498.34;5007028;28;20085;-38
2023/10/16 01:46:56;;;;;;;3.15;1.25;;;;;;;18.40;56.35;102493.94;5007885;28;20042;-37
2023/10/16 01:49:24;;;;;;;2.65;1.40;;;;;;;18.40;56.68;102493.09;5007190;28;20049;-38
2023/10/16 01:51:51;;;;;;;1.88;0.93;;;;;;;18.40;56.83;102493.09;5007923;28;20073;-37
2023/10/16 01:54:22;;;;;;;1.48;0.88;;;;;;;18.39;56.53;102492.22;5009681;28;20053;-38
2023/10/16 01:56:49;;;;;;;2.72;1.00;;;;;;;18.40;56.22;102495.78;5007504;28;20058;-38
2023/10/16 01:59:21;;;;;;;2.28;1.20;;;;;;;18.39;56.56;102491.38;5003985;28;20046;-38
2023/10/16 02:01:49;;;;;;;1.35;1.00;;;;;;;18.39;56.76;102481.50;5004555;28;20138;-37
2023/10/16 02:04:19;;;;;;;1.85;1.15;;;;;;;18.39;56.43;102472.59;5004516;28;20050;-37
2023/10/16 02:06:48;;;;;;;2.30;1.73;;;;;;;18.39;56.57;102476.13;5005102;28;20057;-37
2023/10/16 02:09:22;;;;;;;2.88;1.17;;;;;;;18.38;56.65;102482.47;5007542;28;20130;-37
2023/10/16 02:11:49;;;;;;;1.65;1.00;;;;;;;18.40;56.33;102476.97;5010933;28;20088;-37
2023/10/16 02:14:16;;;;;;;1.13;0.82;;;;;;;18.39;56.79;102484.19;5007850;28;20556;-37
2023/10/16 02:16:47;;;;;;;1.95;1.13;;;;;;;18.39;56.68;102484.19;5008847;28;20081;-37
2023/10/16 02:19:13;;;;;;;1.48;1.00;;;;;;;18.39;56.80;102481.50;5005839;28;20050;-37
2023/10/16 02:21:40;;;;;;;1.75;0.85;;;;;;;18.39;56.71;102475.28;5004236;28;20368;-37
2023/10/16 02:24:07;;;;;;;2.22;1.15;;;;;;;18.38;56.63;102476.25;5005787;28;20130;-37
2023/10/16 02:26:45;;;;;;;1.60;1.08;;;;;;;18.38;56.46;102476.25;5001393;28;20085;-37
2023/10/16 02:29:15;;;;;;;2.72;0.98;;;;;;;18.38;56.40;102469.06;5004965;28;20054;-37
2023/10/16 02:31:42;;;;;;;2.15;1.02;;;;;;;18.38;56.34;102473.56;5002917;28;20049;-37
2023/10/16 02:34:13;;;;;;;1.58;0.90;;;;;;;18.38;56.75;102473.56;5006758;28;20050;-37
2023/10/16 02:36:40;;;;;;;1.92;1.00;;;;;;;18.37;56.69;102469.16;5005711;28;20058;-37
2023/10/16 02:39:10;;;;;;;1.10;1.00;;;;;;;18.35;56.23;102471.09;5005737;28;20046;-37
2023/10/16 02:41:36;;;;;;;2.55;1.30;;;;;;;18.36;56.19;102470.97;5004945;28;20096;-37
2023/10/16 02:44:05;;;;;;;3.05;1.35;;;;;;;18.35;56.54;102479.16;5004504;28;20049;-37
2023/10/16 02:46:32;;;;;;;0.98;0.80;;;;;;;18.34;56.96;102467.56;5010869;28;20381;-37
2023/10/16 02:48:58;;;;;;;1.00;0.90;;;;;;;18.35;56.41;102465.75;5006695;28;20056;-37
2023/10/16 02:51:25;;;;;;;1.77;1.13;;;;;;;18.34;56.36;102464.88;5005378;28;20061;-37
2023/10/16 02:53:54;;;;;;;1.75;0.98;;;;;;;18.33;56.53;102465.88;5003878;28;20047;-37
2023/10/16 02:56:22;;;;;;;3.13;1.10;;;;;;;18.32;56.69;102469.50;5005707;28;20457;-37
2023/10/16 02:58:55;;;;;;;3.00;1.00;;;;;;;18.33;56.72;102475.72;5003636;28;20449;-37
2023/10/16 03:01:22;;;;;;;;;;;;;;;18.31;56.86;102478.53;5004317;28;20058;-37
2023/10/16 03:03:49;;;;;;;1.45;0.90;;;;;;;18.34;56.35;102478.31;5003058;28;20008;-37
2023/10/16 03:06:18;;;;;;;1.60;0.95;;;;;;;18.33;56.42;102473.03;5003462;28;20084;-37
2023/10/16 03:08:52;;;;;;;1.60;0.82;;;;;;;18.32;56.20;102466.81;5005008;28;20450;-36
2023/10/16 03:11:20;;;;;;;1.83;0.80;;;;;;;18.31;56.34;102473.16;5003561;28;20167;-36
2023/10/16 03:13:51;;;;;;;1.92;0.90;;;;;;;18.32;56.61;102474.00;5001792;28;20081;-36
2023/10/16 03:16:23;;;;;;;1.42;0.90;;;;;;;18.31;56.42;102472.31;5006099;28;20112;-36
2023/10/16 03:18:50;;;;;;;1.52;0.88;;;;;;;18.30;56.67;102468.78;5002027;28;20050;-36
2023/10/16 03:23:49;;;;;;;1.52;0.70;;;;;;;18.30;56.47;102470.59;5002992;28;20045;-37
2023/10/16 03:26:27;;;;;;;1.42;0.90;;;;;;;18.29;56.44;102469.75;4999410;28;20092;-37
2023/10/16 03:28:56;;;;;;;2.00;0.80;;;;;;;18.29;56.74;102471.56;5000144;28;20049;-37
2023/10/16 03:31:24;;;;;;;0.80;0.68;;;;;;;18.30;56.61;102463.41;5003278;28;20145;-37
2023/10/16 03:33:53;;;;;;;2.38;0.80;;;;;;;18.29;56.71;102464.38;5003349;28;20050;-36
2023/10/16 03:36:21;;;;;;;2.08;0.90;;;;;;;18.29;56.39;102464.38;5006408;28;20068;-36
2023/10/16 03:38:51;;;;;;;1.42;0.95;;;;;;;18.30;56.76;102465.25;5002480;28;20137;-37
2023/10/16 03:43:56;;;;;;;1.27;0.77;;;;;;;18.28;56.74;102462.66;4999824;28;20054;-37
2023/10/16 03:46:24;;;;;;;1.20;0.90;;;;;;;18.29;56.40;102464.38;5002783;28;20064;-37
2023/10/16 03:48:51;;;;;;;1.60;0.90;;;;;;;18.29;56.71;102460.81;5003961;28;20393;-37
2023/10/16 03:51:17;;;;;;;1.00;0.80;;;;;;;18.29;56.69;102471.56;5003555;28;20215;-37
2023/10/16 03:53:44;;;;;;;3.10;1.48;;;;;;;18.28;56.59;102469.84;5007153;28;20707;-37
2023/10/16 03:56:13;;;;;;;2.17;1.15;;;;;;;18.29;56.98;102458.13;5006158;28;20046;-37
2023/10/16 03:58:43;;;;;;;1.98;1.00;;;;;;;18.29;56.70;102466.19;5000818;28;20054;-37
2023/10/16 04:01:11;;;;;;;3.33;1.50;;;;;;;18.28;56.62;102456.44;5003317;28;20058;-37
2023/10/16 04:03:49;;;;;;;3.67;1.30;;;;;;;18.28;57.15;102451.06;5018877;28;20492;-37
2023/10/16 04:06:20;;;;;;;3.85;1.20;;;;;;;18.29;56.91;102456.34;5001917;28;20054;-37
2023/10/16 04:08:48;;;;;;;3.45;1.30;;;;;;;18.29;57.11;102452.75;5003343;28;20054;-37
2023/10/16 04:11:18;;;;;;;1.85;1.15;;;;;;;18.29;56.99;102447.41;5006103;28;20074;-37
2023/10/16 04:13:48;;;;;;;3.97;1.45;;;;;;;18.30;56.76;102450.00;5006882;28;20046;-37
2023/10/16 04:24:40;;;;;;;3.08;1.65;;;;;;;18.33;56.70;102433.66;5009793;28;20045;-37
2023/10/16 04:32:57;;;;;;;2.70;1.13;;;;;;;18.34;56.26;102430.00;4999959;28;20415;-37
2023/10/16 04:35:29;;;;;;;2.75;1.10;;;;;;;18.35;56.32;102425.47;4998172;28;20408;-38
2023/10/16 04:37:56;;;;;;;1.73;0.95;;;;;;;18.36;56.20;102427.19;5003276;28;20458;-37
2023/10/16 04:43:13;;;;;;;1.48;0.90;;;;;;;18.36;56.28;102419.97;5003037;28;20050;-38
2023/10/16 04:45:39;;;;;;;3.10;1.00;;;;;;;18.36;56.60;102421.81;5001635;28;20046;-38
2023/10/16 04:48:07;;;;;;;2.50;1.10;;;;;;;18.37;56.31;102426.19;5002574;28;20077;-38
2023/10/16 04:53:09;;;;;;;3.17;1.30;;;;;;;18.36;56.40;102419.13;5002666;28;20162;-38
2023/10/16 05:03:25;;;;;;;1.92;1.00;;;;;;;18.38;56.51;102403.78;5004481;28;20491;-38
2023/10/16 05:17:21;;;;;;;2.47;1.30;;;;;;;18.39;56.08;102408.16;5008427;28;20081;-38
2023/10/16 05:19:54;;;;;;;2.13;1.20;;;;;;;18.38;56.50;102415.34;5012233;28;20050;-38
2023/10/16 06:14:24;;;;;;;1.95;1.20;;;;;;;18.37;55.84;102419.03;5002728;28;20393;-38
2023/10/16 06:16:53;;;;;;;1.60;0.90;;;;;;;18.37;56.17;102421.72;5007017;28;20041;-38
2023/10/16 06:19:22;;;;;;;1.85;1.00;;;;;;;18.37;56.04;102419.03;5006086;28;20046;-38
2023/10/16 06:21:56;;;;;;;2.63;1.20;;;;;;;18.38;56.02;102419.88;5010147;28;20053;-38
2023/10/16 06:24:25;;;;;;;2.15;1.50;;;;;;;18.38;56.56;102420.72;5008033;28;20046;-38
2023/10/16 06:26:56;;;;;;;3.00;1.13;;;;;;;18.43;56.62;102420.38;4999739;28;20042;-38
2023/10/16 06:29:41;;;;;;;2.42;1.42;;;;;;;18.49;56.49;102419.88;5005054;28;20104;-38
2023/10/16 06:32:18;;;;;;;2.30;1.13;;;;;;;18.62;56.66;102425.19;5006340;28;20457;-38
2023/10/16 06:34:49;;;;;;;1.38;0.90;;;;;;;18.77;56.23;102420.47;5005053;28;20065;-38
2023/10/16 06:37:21;;;;;;;2.83;1.33;;;;;;;18.89;55.47;102428.41;5003073;28;20050;-38
2023/10/16 06:39:54;;;;;;;2.35;0.98;;;;;;;19.02;55.62;102424.78;5005350;28;20409;-38
2023/10/16 06:42:22;;;;;;;1.83;1.23;;;;;;;19.12;55.43;102423.91;5000395;28;20046;-38
2023/10/16 06:44:50;;;;;;;3.40;1.50;;;;;;;19.22;54.76;102429.44;5000195;28;20046;-38
2023/10/16 06:47:23;;;;;;;8.73;1.48;;;;;;;19.32;54.55;102429.53;5007377;28;20046;-39
2023/10/16 06:49:51;;;;;;;4.10;1.58;;;;;;;19.41;54.10;102421.56;5007056;28;20046;-38
2023/10/16 06:52:17;;;;;;;2.28;1.30;;;;;;;19.52;54.68;102433.28;5004008;28;20050;-38
2023/10/16 06:54:44;;;;;;;2.55;1.40;;;;;;;19.61;53.92;102424.47;5005641;28;20104;-38
2023/10/16 06:57:11;;;;;;;8.25;1.50;;;;;;;19.69;54.34;102425.56;5003334;28;20104;-38
2023/10/16 06:59:38;;;;;;;2.78;1.48;;;;;;;19.78;54.10;102428.50;5000900;28;20131;-38
2023/10/16 07:02:07;;;;;;;2.38;1.35;;;;;;;19.84;53.46;102426.16;4997398;28;20125;-38
2023/10/16 07:04:33;;;;;;;3.25;1.58;;;;;;;19.92;53.37;102428.22;5003479;28;20045;-39
2023/10/16 07:07:00;;;;;;;2.92;1.50;;;;;;;20.00;53.35;102432.97;5000002;28;20105;-38
2023/10/16 07:09:37;;;;;;;4.07;1.73;;;;;;;20.06;53.27;102433.31;5005634;28;20661;-38
2023/10/16 07:12:04;;;;;;;3.58;1.52;;;;;;;20.11;53.44;102428.41;5001041;28;20052;-38
2023/10/16 07:14:31;;;;;;;2.65;1.50;;;;;;;20.18;53.06;102426.03;5002975;28;20050;-39
2023/10/16 07:16:59;;;;;;;2.72;1.60;;;;;;;20.21;53.67;102425.75;5006600;28;20353;-38
2023/10/16 07:19:25;;;;;;;5.70;1.73;;;;;;;20.26;53.53;102426.25;5000595;28;20053;-38
2023/10/16 07:21:52;;;;;;;4.72;1.70;;;;;;;20.27;52.96;102419.03;5001886;28;20383;-38
2023/10/16 07:24:21;;;;;;;4.18;1.55;;;;;;;20.28;52.97;102429.66;5002959;28;20050;-38
2023/10/16 07:26:49;;;;;;;2.95;1.42;;;;;;;20.28;53.30;102418.03;5000474;28;20053;-39
2023/10/16 07:29:15;;;;;;;2.63;1.60;;;;;;;20.25;53.24;102426.38;5006662;28;20440;-38
2023/10/16 07:31:42;;;;;;;2.03;1.23;;;;;;;20.23;52.95;102417.59;5008659;28;20509;-39
2023/10/16 07:34:09;;;;;;;3.40;1.35;;;;;;;20.20;53.69;102418.69;5001025;28;20397;-38
2023/10/16 07:36:35;;;;;;;4.18;1.40;;;;;;;20.15;53.97;102411.00;5004687;28;20050;-38
2023/10/16 07:39:03;;;;;;;3.67;1.55;;;;;;;20.13;53.53;102425.56;5003016;28;20073;-38
2023/10/16 07:41:29;;;;;;;3.00;1.58;;;;;;;20.09;53.52;102414.19;5006154;28;20073;-38
2023/10/16 07:43:56;;;;;;;3.15;1.58;;;;;;;20.05;53.48;102423.50;5006099;28;20038;-38
2023/10/16 07:46:30;;;;;;;2.50;1.50;;;;;;;20.00;54.08;102419.50;5005628;28;20141;-38
2023/10/16 07:49:02;;;;;;;3.28;1.77;;;;;;;19.97;54.12;102418.75;5002122;28;20077;-38
2023/10/16 07:51:29;;;;;;;2.65;1.13;;;;;;;19.93;53.82;102422.69;4999950;28;20053;-38
2023/10/16 07:54:00;;;;;;;2.60;1.70;;;;;;;19.90;54.26;102422.97;5004318;28;20049;-38
2023/10/16 07:56:30;;;;;;;3.50;1.75;;;;;;;19.88;54.25;102426.75;5002016;28;20050;-38
2023/10/16 07:59:08;;;;;;;2.08;1.10;;;;;;;19.85;54.62;102422.47;5002973;28;20065;-38
2023/10/16 08:01:48;;;;;;;2.80;1.52;;;;;;;19.82;54.05;102430.81;5002794;28;20061;-38
2023/10/16 08:06:53;;;;;;;5.28;1.77;;;;;;;19.78;54.30;102437.44;5007958;28;20113;-39
2023/10/16 08:12:12;;;;;;;3.08;1.40;;;;;;;19.74;54.18;102427.91;5003335;28;20046;-38
2023/10/16 08:14:42;;;;;;;2.35;1.30;;;;;;;19.72;55.11;102440.63;5001447;28;20053;-38
2023/10/16 08:17:14;;;;;;;2.47;1.27;;;;;;;19.70;54.35;102431.84;5000943;28;20046;-38
2023/10/16 08:19:44;;;;;;;2.80;1.40;;;;;;;19.67;54.35;102432.94;5006889;28;20424;-38
2023/10/16 08:22:14;;;;;;;3.78;1.95;;;;;;;19.67;54.66;102441.00;4999834;28;20106;-38
2023/10/16 08:24:57;;;;;;;2.70;1.50;;;;;;;19.68;54.66;102434.63;5004052;28;20081;-38
2023/10/16 08:33:16;;;;;;;2.15;1.00;;;;;;;19.89;54.03;102437.38;4947224;28;20051;-38
2023/10/16 08:35:43;;;;;;;2.75;1.50;;;;;;;19.96;54.06;102437.75;4994514;28;20434;-38
2023/10/16 08:38:20;;;;;;;3.30;1.10;;;;;;;20.02;53.85;102436.38;5008273;28;20062;-38
2023/10/16 08:41:06;;;;;;;2.92;1.55;;;;;;;20.07;53.56;102436.84;5007720;28;20064;-38
2023/10/16 08:46:24;;;;;;;1.75;1.33;;;;;;;20.15;54.31;102434.38;5008138;28;20343;-38
2023/10/16 08:48:57;;;;;;;2.40;1.30;;;;;;;20.16;54.23;102433.38;5010712;28;20050;-37
2023/10/16 08:51:28;;;;;;;2.03;0.90;;;;;;;20.17;53.73;102437.78;5009047;28;20624;-37
2023/10/16 08:54:05;;;;;;;3.80;1.35;;;;;;;20.16;54.20;102439.63;5005821;28;20070;-37
2023/10/16 08:56:32;;;;;;;1.63;0.93;;;;;;;20.16;53.88;102438.78;5002684;28;20050;-37
2023/10/16 08:59:01;;;;;;;2.88;1.38;;;;;;;20.16;54.16;102436.06;5008121;28;20050;-37
2023/10/16 09:01:32;;;;;;;2.80;1.50;;;;;;;20.15;53.65;102432.53;5006026;28;20445;-38
2023/10/16 09:04:05;;;;;;;3.58;1.20;;;;;;;20.14;53.83;102436.22;5003573;28;20130;-38
2023/10/16 09:06:39;;;;;;;2.47;1.15;;;;;;;20.14;54.52;102432.66;5010623;28;20132;-37
2023/10/16 09:09:16;;;;;;;3.13;1.38;;;;;;;20.14;54.26;102438.91;5012309;28;20049;-37
2023/10/16 09:11:47;;;;;;;1.98;1.17;;;;;;;20.13;54.38;102434.47;5011173;28;20050;-37
2023/10/16 09:14:18;;;;;;;2.35;1.10;;;;;;;20.14;54.29;102430.84;5005621;28;20330;-37
2023/10/16 09:16:47;;;;;;;1.77;1.10;;;;;;;20.14;54.00;102435.34;5004618;28;20045;-37
2023/10/16 09:19:14;;;;;;;2.53;1.38;;;;;;;20.13;53.91;102437.19;5008226;28;20056;-37
2023/10/16 09:21:43;;;;;;;2.15;0.98;;;;;;;20.14;54.35;102435.34;5008118;28;20678;-37
2023/10/16 09:24:14;;;;;;;2.60;1.52;;;;;;;20.14;54.97;102438.91;5004243;28;20042;-37
2023/10/16 09:26:54;;;;;;;1.92;1.10;;;;;;;20.15;55.07;102442.44;5004434;28;20053;-37
2023/10/16 09:29:25;;;;;;;2.53;1.20;;;;;;;20.15;54.42;102443.31;5010165;28;20050;-37
2023/10/16 09:31:52;;;;;;;1.33;0.98;;;;;;;20.17;54.41;102441.31;5006607;28;20427;-38
2023/10/16 09:34:22;;;;;;;2.42;1.42;;;;;;;20.18;54.34;102440.38;5005254;28;20097;-37
2023/10/16 09:37:14;;;;;;;1.75;0.98;;;;;;;20.19;54.75;102431.28;5006367;28;20077;-37
2023/10/16 09:39:37;;;;;;;1.50;0.90;;;;;;;20.23;54.44;102433.72;5006538;28;20076;-38
2023/10/16 09:42:11;;;;;;;2.42;1.00;;;;;;;20.25;54.73;102437.13;5007120;28;20593;-38
2023/10/16 09:44:56;;;;;;;1.95;0.80;;;;;;;20.27;55.07;102424.41;5012339;28;20141;-37
2023/10/16 09:47:27;;;;;;;2.83;1.00;;;;;;;20.29;54.68;102434.06;5007159;28;20133;-38
2023/10/16 09:49:59;;;;;;;1.80;1.02;;;;;;;20.29;54.88;102434.06;5004544;28;20074;-37
2023/10/16 09:52:32;;;;;;;1.70;1.30;;;;;;;20.32;54.91;102423.03;5003739;28;20053;-37
2023/10/16 09:54:59;;;;;;;1.52;0.82;;;;;;;20.34;54.57;102421.06;5004062;28;20047;-41
2023/10/16 09:57:30;;;;;;;1.08;0.85;;;;;;;20.36;54.52;102423.63;5005491;28;20524;-37
2023/10/16 10:00:23;;;;;;;2.90;1.27;;;;;;;20.36;54.60;102424.47;5003237;28;20076;-38
2023/10/16 10:02:53;;;;;;;1.63;0.80;;;;;;;20.38;54.17;102424.34;5003042;28;20062;-38
2023/10/16 10:05:31;;;;;;;1.75;0.90;;;;;;;20.39;54.70;102428.75;5006888;28;20049;-38
2023/10/16 10:08:01;;;;;;;3.20;0.85;;;;;;;20.39;54.82;102424.22;4999804;28;20073;-37
2023/10/16 10:13:15;;;;;;;1.10;0.70;;;;;;;20.41;53.92;102424.94;5008340;28;20615;-38
2023/10/16 10:15:48;;;;;;;1.13;0.70;;;;;;;20.43;54.69;102430.19;5011466;28;20455;-37
2023/10/16 10:18:32;;;;;;;1.25;0.90;;;;;;;20.43;54.22;102422.13;5006589;28;20363;-38
2023/10/16 10:21:01;;;;;;;1.77;0.85;;;;;;;20.46;54.34;102424.53;5008403;28;20046;-37
2023/10/16 10:23:32;;;;;;;2.42;0.90;;;;;;;20.46;54.36;102425.41;4999411;28;20515;-37
2023/10/16 10:26:03;;;;;;;2.17;1.00;;;;;;;20.47;54.33;102423.56;5001375;28;20058;-38
2023/10/16 10:28:32;;;;;;;2.40;1.15;;;;;;;20.48;54.57;102425.28;5005529;28;20046;-38
2023/10/16 10:31:02;;;;;;;1.73;0.98;;;;;;;20.49;54.25;102418.91;5002541;28;20051;-38
2023/10/16 10:33:56;;;;;;;2.10;0.82;;;;;;;20.48;54.07;102427.97;5004484;28;20121;-38
2023/10/16 10:36:33;;;;;;;2.42;0.90;;;;;;;20.49;54.09;102424.31;5005749;28;20085;-39
2023/10/16 10:39:22;;;;;;;2.05;0.80;;;;;;;20.50;54.10;102426.00;5005728;28;20058;-38
2023/10/16 10:41:53;;;;;;;2.17;1.30;;;;;;;20.51;54.08;102426.88;5002290;28;20046;-38
2023/10/16 10:44:37;;;;;;;1.88;0.75;;;;;;;20.50;54.36;102426.00;5000999;28;20049;-39
2023/10/16 10:47:30;;;;;;;1.50;0.80;;;;;;;20.50;54.42;102419.78;5009748;28;20418;-38
2023/10/16 10:50:00;;;;;;;1.60;1.00;;;;;;;20.52;54.37;102433.97;5001383;28;20042;-38
2023/10/16 10:52:32;;;;;;;1.50;0.95;;;;;;;20.52;53.67;102428.59;5008886;28;20057;-38
2023/10/16 10:55:14;;;;;;;2.10;0.90;;;;;;;20.51;54.31;102422.34;5003992;28;20068;-38
2023/10/16 10:57:47;;;;;;;0.88;0.73;;;;;;;20.52;53.94;102421.34;5005092;28;20058;-39
2023/10/16 11:00:43;;;;;;;1.48;0.80;;;;;;;20.52;53.99;102425.91;5004701;28;20104;-38
2023/10/16 11:03:22;;;;;;;0.80;0.60;;;;;;;20.53;53.58;102424.91;5004279;28;20050;-38
2023/10/16 11:05:50;;;;;;;1.40;0.80;;;;;;;20.53;54.18;102425.75;5004164;28;20121;-38
2023/10/16 11:08:17;;;;;;;2.22;0.75;;;;;;;20.52;53.85;102415.97;5001832;28;20088;-39
2023/10/16 11:10:47;;;;;;;2.08;0.90;;;;;;;20.51;53.72;102411.56;5009481;28;20108;-38
2023/10/16 11:13:15;;;;;;;1.67;0.85;;;;;;;20.52;53.75;102417.81;5003202;28;20050;-38
2023/10/16 11:15:52;;;;;;;3.03;0.90;;;;;;;20.54;53.62;102415.81;5006750;28;20054;-38
2023/10/16 11:18:22;;;;;;;1.83;1.02;;;;;;;20.52;53.89;102418.66;5008214;28;20104;-37
2023/10/16 11:20:54;;;;;;;1.20;0.88;;;;;;;20.52;53.85;102413.28;5007896;28;20344;-37
2023/10/16 11:23:25;;;;;;;2.42;1.33;;;;;;;20.53;53.33;102406.91;5001490;28;20046;-38
2023/10/16 11:25:54;;;;;;;2.67;0.80;;;;;;;20.53;53.62;102414.13;5002120;28;20054;-38
2023/10/16 11:28:28;;;;;;;1.58;0.70;;;;;;;20.52;53.94;102409.72;4999358;28;20149;-38
2023/10/16 11:30:56;;;;;;;;;;;;;;;20.51;53.66;102408.88;5004472;28;20046;-37
2023/10/16 11:33:45;;;;;;;0.52;0.50;;;;;;;20.55;53.23;102407.63;5002892;28;20318;-38
2023/10/16 11:36:15;;;;;;;2.42;0.90;;;;;;;20.54;53.33;102399.66;5000705;28;20050;-38
2023/10/16 11:38:43;;;;;;;1.40;0.90;;;;;;;20.53;53.50;102397.97;4999394;28;20512;-38
2023/10/16 11:41:16;;;;;;;1.20;0.82;;;;;;;20.52;53.12;102389.03;5005463;28;20051;-38
2023/10/16 11:43:52;;;;;;;1.63;0.90;;;;;;;20.52;53.06;102388.19;5005963;28;20053;-38
2023/10/16 11:47:09;;;;;;;2.17;1.00;;;;;;;20.52;53.37;102389.03;5006739;28;20096;-38
2023/10/16 11:51:58;;;;;;;0.70;0.60;;;;;;;20.60;52.91;102378.44;5004497;28;20456;-38
2023/10/16 11:54:25;;;;;;;0.82;0.60;;;;;;;20.64;52.77;102387.13;4999150;28;20046;-38
2023/10/16 11:56:55;;;;;;;2.00;0.82;;;;;;;20.66;53.22;102383.31;5000935;28;20170;-38
2023/10/16 11:59:26;;;;;;;1.27;0.70;;;;;;;20.69;52.84;102376.78;4998952;28;20057;-38
2023/10/16 12:01:53;;;;;;;0.82;0.60;;;;;;;20.73;53.11;102374.69;5000590;28;20061;-38
2023/10/16 12:04:29;;;;;;;1.30;0.80;;;;;;;20.75;53.24;102372.72;5001668;28;20442;-38
2023/10/16 12:06:58;;;;;;;1.38;0.70;;;;;;;20.76;53.50;102369.88;5001239;28;20130;-38
2023/10/16 12:09:27;;;;;;;1.45;0.80;;;;;;;20.77;52.70;102373.44;5000872;28;20046;-38
2023/10/16 12:11:55;;;;;;;1.25;0.70;;;;;;;20.78;53.24;102369.72;5002699;28;20054;-39
2023/10/16 12:14:23;;;;;;;2.30;0.80;;;;;;;20.78;52.73;102361.66;5008459;28;20046;-38
2023/10/16 12:16:51;;;;;;;1.15;0.77;;;;;;;20.78;53.03;102367.88;5009708;28;20049;-38
2023/10/16 12:19:18;;;;;;;1.08;0.73;;;;;;;20.78;52.94;102364.34;5005423;28;20393;-38
2023/10/16 12:21:50;;;;;;;0.57;0.55;;;;;;;20.79;52.74;102366.06;5006310;28;20081;-39
2023/10/16 12:24:17;;;;;;;0.90;0.47;;;;;;;20.79;52.81;102360.69;5006058;28;20054;-39
2023/10/16 12:26:45;;;;;;;2.25;0.55;;;;;;;20.80;53.16;102357.00;5002920;28;20057;-39
2023/10/16 12:29:12;;;;;;;2.25;0.70;;;;;;;20.79;53.18;102355.28;5000464;28;20123;-39
2023/10/16 12:31:41;;;;;;;1.38;0.68;;;;;;;20.80;53.02;102351.59;5007428;28;20054;-39
2023/10/16 12:34:11;;;;;;;0.75;0.68;;;;;;;20.80;52.97;102349.75;5001034;28;20061;-38
2023/10/16 12:36:38;;;;;;;0.70;0.52;;;;;;;20.80;53.21;102346.22;4998196;28;20082;-38
2023/10/16 12:39:13;;;;;;;0.90;0.60;;;;;;;20.80;52.98;102346.22;5004818;28;20053;-38
2023/10/16 12:41:41;;;;;;;0.57;0.52;;;;;;;20.81;53.21;102347.91;5000959;28;20438;-39
2023/10/16 12:44:09;;;;;;;1.05;0.68;;;;;;;20.81;53.53;102348.75;5001647;28;20050;-38
2023/10/16 12:46:37;;;;;;;1.88;0.75;;;;;;;20.80;52.81;102349.75;5019591;28;20050;-39
2023/10/16 12:49:07;;;;;;;1.00;0.50;;;;;;;20.80;52.88;102348.91;5008525;28;20141;-38
2023/10/16 12:51:34;;;;;;;1.52;0.80;;;;;;;20.81;52.93;102346.06;5006804;28;20069;-39
2023/10/16 12:54:03;;;;;;;1.42;0.80;;;;;;;20.81;53.01;102342.53;5004225;28;20039;-38
2023/10/16 12:56:31;;;;;;;1.88;0.80;;;;;;;20.81;52.49;102339.84;5005082;28;20090;-38
2023/10/16 12:59:01;;;;;;;0.73;0.50;;;;;;;20.81;52.81;102334.44;5000767;28;20053;-39
2023/10/16 13:01:28;;;;;;;0.85;0.60;;;;;;;20.80;53.08;102336.28;5003270;28;20089;-39
2023/10/16 13:04:01;;;;;;;1.52;0.70;;;;;;;20.81;52.94;102340.69;5002792;28;20095;-39
2023/10/16 13:06:31;;;;;;;0.75;0.70;;;;;;;20.81;52.78;102329.06;5003583;28;20349;-38
2023/10/16 13:08:58;;;;;;;1.10;0.60;;;;;;;20.82;52.68;102334.28;5002225;28;20082;-38
2023/10/16 13:11:25;;;;;;;1.40;0.75;;;;;;;20.81;52.79;102324.50;5005142;28;20116;-38
2023/10/16 13:13:55;;;;;;;2.78;0.50;;;;;;;20.82;52.45;102322.66;5002205;28;20046;-39
2023/10/16 13:16:26;;;;;;;1.08;0.50;;;;;;;20.82;52.95;102330.75;5004091;28;20152;-39
2023/10/16 13:18:57;;;;;;;1.70;0.90;;;;;;;20.83;52.82;102329.78;5006603;28;20404;-39
2023/10/16 13:21:34;;;;;;;0.93;0.55;;;;;;;20.81;52.68;102331.75;5007814;28;20050;-39
2023/10/16 13:24:09;;;;;;;1.58;0.50;;;;;;;20.82;53.07;102325.34;5006999;28;20046;-38
2023/10/16 13:26:37;;;;;;;2.53;0.88;;;;;;;20.82;52.81;102328.06;5004954;28;20427;-39
2023/10/16 13:29:09;;;;;;;1.25;0.63;;;;;;;20.81;52.84;102329.91;5003917;28;20056;-39
2023/10/16 13:31:36;;;;;;;1.30;0.75;;;;;;;20.81;52.78;102324.50;5004599;28;20053;-39
2023/10/16 13:34:04;;;;;;;0.55;0.47;;;;;;;20.82;52.81;102325.34;5007519;28;20357;-38
2023/10/16 13:36:35;;;;;;;1.98;0.68;;;;;;;20.82;53.16;102325.34;5005208;28;20053;-38
2023/10/16 13:39:08;;;;;;;1.70;0.70;;;;;;;20.81;53.23;102329.91;5004405;28;20064;-38
2023/10/16 13:41:50;;;;;;;2.92;0.47;;;;;;;20.82;52.64;102323.50;5008601;28;20112;-38